Home > Products > Valid Products > TAF

000
FTUS43 KGRR 060000 AAA
TAFMKG
TAF AMD
KMKG 060002Z 0600/0624 27008KT P6SM BKN035
      TEMPO 0600/0602 BKN025
     FM061200 22009KT P6SM OVC250
     FM061800 20015G25KT P6SM BKN250=



000
FTUS43 KGRR 060000 AAA
TAFMKG
TAF AMD
KMKG 060002Z 0600/0624 27008KT P6SM BKN035
      TEMPO 0600/0602 BKN025
     FM061200 22009KT P6SM OVC250
     FM061800 20015G25KT P6SM BKN250=



000
FTUS43 KGRR 060000 AAA
TAFGRR
TAF AMD
KGRR 060001Z 0600/0624 30010KT P6SM BKN025
     FM060300 23008KT P6SM SCT035
     FM061800 21012G20KT P6SM SCT250=



000
FTUS43 KGRR 060000 AAA
TAFGRR
TAF AMD
KGRR 060001Z 0600/0624 30010KT P6SM BKN025
     FM060300 23008KT P6SM SCT035
     FM061800 21012G20KT P6SM SCT250=



000
FTUS43 KGRR 052300
TAFLAN
TAF
KLAN 052327Z 0600/0624 23007KT P6SM SCT250
     FM061800 21012G20KT P6SM SCT250=



000
FTUS43 KGRR 052300
TAFBTL
TAF
KBTL 052327Z 0600/0624 00000KT P6SM SCT035
     FM060300 22007KT P6SM SCT250
     FM061800 21012G20KT P6SM SCT250=



000
FTUS43 KGRR 052300
TAFMKG
TAF
KMKG 052327Z 0600/0624 27008KT P6SM BKN035
     FM061200 22009KT P6SM OVC250
     FM061800 20015G25KT P6SM BKN250=



000
FTUS43 KGRR 052300
TAFAZO
TAF
KAZO 052327Z 0600/0624 31006KT P6SM SCT035
     FM060300 28007KT P6SM SKC
     FM061800 21012G20KT P6SM SCT250=



000
FTUS43 KGRR 052300
TAFGRR
TAF
KGRR 052327Z 0600/0624 30010KT P6SM BKN040
     FM060300 23008KT P6SM SCT035
     FM061800 21012G20KT P6SM SCT250=



000
FTUS43 KGRR 052300
TAFJXN
TAF
KJXN 052327Z 0600/0624 33005KT P6SM SCT035
     FM060300 22007KT P6SM SCT250
     FM061800 21012G20KT P6SM SCT250=



000
FTUS43 KGRR 052100 AAA
TAFGRR
TAF AMD
KGRR 052145Z 0522/0618 30010KT P6SM VCSH BKN040
      TEMPO 0522/0601 5SM -SHSN
     FM060300 23008KT P6SM SCT035=



000
FTUS43 KGRR 052100 AAD
TAFMKG
TAF AMD
KMKG 052144Z 0522/0618 30009KT P6SM OVC029
      TEMPO 0522/0524 6SM -SHSN OVC025
     FM060000 27008KT P6SM BKN035=



000
FTUS43 KGRR 052100 AAD
TAFMKG
TAF AMD
KMKG 052144Z 0522/0618 30009KT P6SM OVC029
      TEMPO 0522/0524 6SM -SHSN OVC025
     FM060000 27008KT P6SM BKN035=



000
FTUS43 KGRR 052100 AAC
TAFMKG
TAF AMD
KMKG 052119Z 0521/0618 30007KT P6SM FEW023 OVC030
      TEMPO 0521/0524 2SM -SHSN OVC025
     FM060000 27008KT P6SM BKN035=



000
FTUS43 KGRR 051900 AAB
TAFMKG
TAF AMD
KMKG 051926Z 0519/0618 27008KT 1SM -SN BKN020 BKN030 OVC040
     FM052000 27008KT 2SM -SHSN OVC025
     FM052100 28007KT 5SM -SHSN OVC035
      TEMPO 0521/0524 2SM -SHSN OVC025
     FM060000 27008KT P6SM BKN035=



000
FTUS43 KGRR 051800 AAA
TAFMKG
TAF AMD
KMKG 051812Z 0518/0618 33007KT P6SM SCT035 BKN045
      TEMPO 0518/0521 2SM -SHSN OVC025
     FM052100 28007KT 4SM -SHSN OVC035
      TEMPO 0521/0524 2SM -SHSN OVC025
     FM060000 27008KT P6SM BKN035=



000
FTUS43 KGRR 051700
TAFGRR
TAF
KGRR 051737Z 0518/0618 28004KT P6SM SCT035 SCT250
     FM052100 28007KT P6SM VCSH OVC035
     FM060300 23008KT P6SM SCT035=



000
FTUS43 KGRR 051700
TAFAZO
TAF
KAZO 051737Z 0518/0618 31006KT P6SM SCT035
     FM060300 28007KT P6SM SKC=



000
FTUS43 KGRR 051700
TAFLAN
TAF
KLAN 051737Z 0518/0618 34009KT P6SM SCT035
     FM060300 22007KT P6SM SCT250=



000
FTUS43 KGRR 051700
TAFJXN
TAF
KJXN 051737Z 0518/0618 33005KT P6SM SCT035
     FM060300 22007KT P6SM SCT250=



000
FTUS43 KGRR 051700
TAFBTL
TAF
KBTL 051737Z 0518/0618 00000KT P6SM SCT035
     FM060300 22007KT P6SM SCT250=



000
FTUS43 KGRR 051700
TAFMKG
TAF
KMKG 051737Z 0518/0618 33007KT P6SM SCT035 BKN045
     FM052100 28007KT 4SM -SHSN OVC035
      TEMPO 0521/0524 2SM -SHSN OVC025
     FM060000 27008KT P6SM BKN035=



000
FTUS43 KGRR 051100
TAFJXN
TAF
KJXN 051140Z 0512/0612 02005KT P6SM SCT035
     FM060300 22007KT P6SM SCT250=



000
FTUS43 KGRR 051100
TAFJXN
TAF
KJXN 051140Z 0512/0612 02005KT P6SM SCT035
     FM060300 22007KT P6SM SCT250=



000
FTUS43 KGRR 051100
TAFLAN
TAF
KLAN 051140Z 0512/0612 02005KT P6SM SCT035
     FM060300 22007KT P6SM SCT250=



000
FTUS43 KGRR 051100
TAFMKG
TAF
KMKG 051140Z 0512/0612 02006KT P6SM VCSH BKN040
     FM051500 25007KT P6SM SKC=



000
FTUS43 KGRR 051100
TAFAZO
TAF
KAZO 051140Z 0512/0612 03005KT P6SM VCSH SCT035
     FM060300 28007KT P6SM SKC=



000
FTUS43 KGRR 051100
TAFBTL
TAF
KBTL 051140Z 0512/0612 02005KT P6SM VCSH SCT035
     FM060300 22007KT P6SM SCT250=



000
FTUS43 KGRR 051100
TAFGRR
TAF
KGRR 051140Z 0512/0612 02006KT P6SM VCSH SCT035
     FM060300 22007KT P6SM SKC=



000
FTUS43 KGRR 051100
TAFLAN
TAF
KLAN 051140Z 0512/0612 02005KT P6SM SCT035
     FM060300 22007KT P6SM SCT250=



000
FTUS43 KGRR 051100
TAFMKG
TAF
KMKG 051140Z 0512/0612 02006KT P6SM VCSH BKN040
     FM051500 25007KT P6SM SKC=



000
FTUS43 KGRR 051100
TAFAZO
TAF
KAZO 051140Z 0512/0612 03005KT P6SM VCSH SCT035
     FM060300 28007KT P6SM SKC=



000
FTUS43 KGRR 051100
TAFBTL
TAF
KBTL 051140Z 0512/0612 02005KT P6SM VCSH SCT035
     FM060300 22007KT P6SM SCT250=



000
FTUS43 KGRR 051100
TAFGRR
TAF
KGRR 051140Z 0512/0612 02006KT P6SM VCSH SCT035
     FM060300 22007KT P6SM SKC=



000
FTUS43 KGRR 050500
TAFGRR
TAF
KGRR 050540Z 0506/0606 34008KT P6SM VCSH SCT035
     FM051500 10003KT P6SM BKN050
     FM060300 22007KT P6SM SCT250=



000
FTUS43 KGRR 050500
TAFMKG
TAF
KMKG 050540Z 0506/0606 34008KT P6SM VCSH BKN035
     FM051500 10003KT P6SM BKN050
     FM060300 22007KT P6SM SCT250=



000
FTUS43 KGRR 050500
TAFLAN
TAF
KLAN 050540Z 0506/0606 34008KT P6SM VCSH SCT035
     FM051500 10003KT P6SM BKN050
     FM060300 22007KT P6SM SCT250=



000
FTUS43 KGRR 050500
TAFAZO
TAF
KAZO 050540Z 0506/0606 34008KT P6SM VCSH SCT035
     FM051500 10003KT P6SM BKN050
     FM060300 22007KT P6SM SCT250=



000
FTUS43 KGRR 050500
TAFJXN
TAF
KJXN 050540Z 0506/0606 34008KT P6SM VCSH SCT035
     FM051500 10003KT P6SM BKN050
     FM060300 22007KT P6SM SCT250=



000
FTUS43 KGRR 050500
TAFBTL
TAF
KBTL 050540Z 0506/0606 34008KT P6SM VCSH SCT035
     FM051500 10003KT P6SM BKN050
     FM060300 22007KT P6SM SCT250=



000
FTUS43 KGRR 050500
TAFMKG
TAF
KMKG 050540Z 0506/0606 34008KT P6SM VCSH BKN035
     FM051500 10003KT P6SM BKN050
     FM060300 22007KT P6SM SCT250=



000
FTUS43 KGRR 050500
TAFAZO
TAF
KAZO 050540Z 0506/0606 34008KT P6SM VCSH SCT035
     FM051500 10003KT P6SM BKN050
     FM060300 22007KT P6SM SCT250=



000
FTUS43 KGRR 050500
TAFBTL
TAF
KBTL 050540Z 0506/0606 34008KT P6SM VCSH SCT035
     FM051500 10003KT P6SM BKN050
     FM060300 22007KT P6SM SCT250=



000
FTUS43 KGRR 050500
TAFGRR
TAF
KGRR 050540Z 0506/0606 34008KT P6SM VCSH SCT035
     FM051500 10003KT P6SM BKN050
     FM060300 22007KT P6SM SCT250=



000
FTUS43 KGRR 050500
TAFJXN
TAF
KJXN 050540Z 0506/0606 34008KT P6SM VCSH SCT035
     FM051500 10003KT P6SM BKN050
     FM060300 22007KT P6SM SCT250=



000
FTUS43 KGRR 050500
TAFLAN
TAF
KLAN 050540Z 0506/0606 34008KT P6SM VCSH SCT035
     FM051500 10003KT P6SM BKN050
     FM060300 22007KT P6SM SCT250=



000
FTUS43 KGRR 050200 AAA
TAFJXN
TAF AMD
KJXN 050210Z 0502/0524 30014G23KT P6SM SCT040
     FM050430 29010KT P6SM SKC
     FM050700 29007KT P6SM VCSH BKN035
     FM051000 02003KT P6SM SCT035=



000
FTUS43 KGRR 050000 AAA
TAFGRR
TAF AMD
KGRR 050042Z 0501/0524 30011G16KT P6SM VCSH SCT035
     FM050400 33006KT P6SM BKN035
     FM051400 26005KT P6SM VCSH BKN050=



000
FTUS43 KGRR 042300
TAFJXN
TAF
KJXN 042340Z 0500/0524 30014G23KT P6SM SCT040
     FM050130 29010KT P6SM SKC
     FM050700 29007KT P6SM VCSH BKN035
     FM051000 02003KT P6SM SCT035=



000
FTUS43 KGRR 042300
TAFBTL
TAF
KBTL 042340Z 0500/0524 31011KT P6SM VCSH SCT035
     FM050800 32005KT 5SM -SHSN OVC025
     FM051000 32004KT P6SM VCSH BKN035=



000
FTUS43 KGRR 042300
TAFLAN
TAF
KLAN 042340Z 0500/0524 27011G15KT P6SM SKC
     FM050300 28006KT P6SM SCT035
     FM050700 29007KT P6SM VCSH BKN035
     FM051000 02003KT P6SM SCT035=



000
FTUS43 KGRR 042300
TAFMKG
TAF
KMKG 042340Z 0500/0524 32010KT P6SM VCSH BKN035
     FM050900 35006KT 3SM -SHSN BR OVC025
     FM051400 32010KT P6SM VCSH BKN035=



000
FTUS43 KGRR 042300
TAFAZO
TAF
KAZO 042340Z 0500/0524 31011KT P6SM VCSH SCT035
     FM050800 32005KT 5SM -SHSN OVC025
     FM051000 32004KT P6SM VCSH BKN035=



000
FTUS43 KGRR 042300
TAFGRR
TAF
KGRR 042340Z 0500/0524 29010KT P6SM VCSH SCT035
     FM050800 36004KT P6SM BKN035
     FM051400 26005KT P6SM VCSH BKN050=



000
FTUS43 KGRR 042100 AAA
TAFJXN
TAF AMD
KJXN 042122Z 0421/0518 30014G23KT P6SM SCT040
     FM042300 29012KT P6SM SKC
     FM050300 28006KT P6SM SCT035
     FM050900 29007KT 6SM -SHSN BKN025
     FM051200 02003KT P6SM SCT035=



000
FTUS43 KGRR 042000 AAA
TAFMKG
TAF AMD
KMKG 042009Z 0420/0518 29016G25KT P6SM BKN026
     FM050300 32010KT 5SM -SHSN BKN035
     FM050900 35006KT 2SM -SHSN BR OVC025
     FM051400 32010KT 5SM -SHSN BKN035=



000
FTUS43 KGRR 042000 AAB
TAFBTL
TAF AMD
KBTL 042009Z 0420/0518 28017KT P6SM BKN035
     FM050100 29010KT P6SM SCT035
     FM050300 30008KT P6SM BKN035
     FM050800 32005KT 5SM -SHSN OVC025
     FM051000 32004KT P6SM BKN035=



000
FTUS43 KGRR 042000 AAA
TAFGRR
TAF AMD
KGRR 042009Z 0420/0518 28015G24KT P6SM VCSH SCT030 BKN230
     FM042300 29012KT P6SM SCT035
     FM050600 29007KT 5SM -SHSN BKN025
     FM050800 36004KT P6SM BKN035
     FM051400 26005KT 6SM -SHSN BKN050=



000
FTUS43 KGRR 041800 AAA
TAFBTL
TAF AMD
KBTL 041810Z 0418/0518 30014KT P6SM BKN030
     FM041900 31014G20KT P6SM -SHSN OVC035
     FM050100 29010KT P6SM SCT035
     FM050300 30008KT P6SM BKN035
     FM050800 32005KT 5SM -SHSN OVC025
     FM051000 32004KT P6SM BKN035=



000
FTUS43 KGRR 041800 AAA
TAFAZO
TAF AMD
KAZO 041810Z 0418/0518 32015KT P6SM VCSH BKN029
     FM041900 31014G20KT P6SM -SHSN OVC035
     FM050300 30008KT P6SM BKN035
     FM050800 32005KT 5SM -SHSN OVC025
     FM051000 32004KT P6SM BKN035=



000
FTUS43 KGRR 041700
TAFGRR
TAF
KGRR 041740Z 0418/0518 29012KT P6SM VCSH SCT026 BKN250
     FM042300 29012KT P6SM SCT035
     FM050600 29007KT 5SM -SHSN BKN025
     FM050800 36004KT P6SM BKN035
     FM051400 26005KT 6SM -SHSN BKN050=



000
FTUS43 KGRR 041700
TAFLAN
TAF
KLAN 041740Z 0418/0518 26014KT P6SM BKN100
     FM042300 29012KT P6SM SKC
     FM050300 28006KT P6SM SCT035
     FM050700 29007KT 6SM -SHSN BKN025
     FM051000 02003KT P6SM SCT035=



000
FTUS43 KGRR 041700
TAFJXN
TAF
KJXN 041740Z 0418/0518 26016G22KT P6SM SCT025
     FM042300 29012KT P6SM SKC
     FM050300 28006KT P6SM SCT035
     FM050900 29007KT 6SM -SHSN BKN025
     FM051200 02003KT P6SM SCT035=



000
FTUS43 KGRR 041700
TAFAZO
TAF
KAZO 041740Z 0418/0518 27012KT P6SM VCSH BKN027
     FM041900 31014G20KT P6SM -SHSN OVC035
     FM050300 30008KT P6SM BKN035
     FM050800 32005KT 5SM -SHSN OVC025
     FM051000 32004KT P6SM BKN035=



000
FTUS43 KGRR 041700
TAFBTL
TAF
KBTL 041740Z 0418/0518 28011KT P6SM FEW027
     FM041900 31014G20KT P6SM -SHSN OVC035
     FM050100 29010KT P6SM SCT035
     FM050300 30008KT P6SM BKN035
     FM050800 32005KT 5SM -SHSN OVC025
     FM051000 32004KT P6SM BKN035=



000
FTUS43 KGRR 041700
TAFMKG
TAF
KMKG 041740Z 0418/0518 30014G22KT P6SM -SN OVC025
     FM042000 30015G25KT 6SM -SHSN BKN035
     FM050300 32010KT 5SM -SHSN BKN035
     FM050900 35006KT 2SM -SHSN BR OVC025
     FM051400 32010KT 5SM -SHSN BKN035=



000
FTUS43 KGRR 041700
TAFAZO
TAF
KAZO 041740Z 0418/0518 27012KT P6SM VCSH BKN027
     FM041900 31014G20KT P6SM -SHSN OVC035
     FM050300 30008KT P6SM BKN035
     FM050800 32005KT 5SM -SHSN OVC025
     FM051000 32004KT P6SM BKN035=



000
FTUS43 KGRR 041700
TAFJXN
TAF
KJXN 041740Z 0418/0518 26016G22KT P6SM SCT025
     FM042300 29012KT P6SM SKC
     FM050300 28006KT P6SM SCT035
     FM050900 29007KT 6SM -SHSN BKN025
     FM051200 02003KT P6SM SCT035=



000
FTUS43 KGRR 041700
TAFGRR
TAF
KGRR 041740Z 0418/0518 29012KT P6SM VCSH SCT026 BKN250
     FM042300 29012KT P6SM SCT035
     FM050600 29007KT 5SM -SHSN BKN025
     FM050800 36004KT P6SM BKN035
     FM051400 26005KT 6SM -SHSN BKN050=



000
FTUS43 KGRR 041700
TAFLAN
TAF
KLAN 041740Z 0418/0518 26014KT P6SM BKN100
     FM042300 29012KT P6SM SKC
     FM050300 28006KT P6SM SCT035
     FM050700 29007KT 6SM -SHSN BKN025
     FM051000 02003KT P6SM SCT035=



000
FTUS43 KGRR 041700
TAFMKG
TAF
KMKG 041740Z 0418/0518 30014G22KT P6SM -SN OVC025
     FM042000 30015G25KT 6SM -SHSN BKN035
     FM050300 32010KT 5SM -SHSN BKN035
     FM050900 35006KT 2SM -SHSN BR OVC025
     FM051400 32010KT 5SM -SHSN BKN035=



000
FTUS43 KGRR 041700
TAFBTL
TAF
KBTL 041740Z 0418/0518 28011KT P6SM FEW027
     FM041900 31014G20KT P6SM -SHSN OVC035
     FM050100 29010KT P6SM SCT035
     FM050300 30008KT P6SM BKN035
     FM050800 32005KT 5SM -SHSN OVC025
     FM051000 32004KT P6SM BKN035=



000
FTUS43 KGRR 041400 AAA
TAFBTL
TAF AMD
KBTL 041434Z 0415/0512 33008G18KT P6SM BKN020 OVC030
     FM041900 30014G21KT P6SM BKN035
     FM050300 30006KT P6SM BKN035=



000
FTUS43 KGRR 041400 AAA
TAFMKG
TAF AMD
KMKG 041433Z 0415/0512 30009G20KT P6SM VCSH OVC023
     FM041900 30015G25KT P6SM VCSH BKN035
     FM050300 30010KT 5SM -SN BKN035=



000
FTUS43 KGRR 041400 AAA
TAFAZO
TAF AMD
KAZO 041433Z 0415/0512 33013KT P6SM VCSH OVC020
     FM041900 31013G20KT P6SM VCSH BKN035
     FM050300 30006KT P6SM BKN035=



000
FTUS43 KGRR 041100
TAFJXN
TAF
KJXN 041140Z 0412/0512 28007KT P6SM OVC025
     FM041500 30010G20KT P6SM BKN035
     FM050300 29006KT P6SM BKN035=



000
FTUS43 KGRR 041100
TAFLAN
TAF
KLAN 041140Z 0412/0512 27008KT P6SM OVC030
     FM041500 29012G21KT P6SM BKN035
     FM050300 28006KT P6SM SCT035=



000
FTUS43 KGRR 041100
TAFBTL
TAF
KBTL 041140Z 0412/0512 29008KT P6SM OVC030
     FM041500 30012G21KT P6SM BKN035
     FM050300 30006KT P6SM BKN035=



000
FTUS43 KGRR 041100
TAFAZO
TAF
KAZO 041140Z 0412/0512 29008KT P6SM OVC030
     FM041500 30012G21KT P6SM VCSH BKN035
     FM050300 30006KT P6SM BKN035=



000
FTUS43 KGRR 041100
TAFMKG
TAF
KMKG 041140Z 0412/0512 31010G18KT P6SM SCT035
     FM041500 30012G21KT P6SM VCSH BKN035
     FM050300 30010KT 5SM -SN BKN035=



000
FTUS43 KGRR 041100
TAFGRR
TAF
KGRR 041140Z 0412/0512 30010KT P6SM SCT035
     FM041500 29012G21KT P6SM VCSH BKN035
     FM050300 29008KT P6SM BKN035=



000
FTUS43 KGRR 040500
TAFMKG
TAF
KMKG 040540Z 0406/0506 29010KT P6SM OVC025
     FM041500 29012KT P6SM VCSH BKN035=



000
FTUS43 KGRR 040500
TAFGRR
TAF
KGRR 040540Z 0406/0506 29010KT P6SM OVC025
     FM041500 29012KT P6SM VCSH BKN035=



000
FTUS43 KGRR 040500
TAFLAN
TAF
KLAN 040540Z 0406/0506 28011G20KT P6SM OVC025
      TEMPO 0406/0409 BKN015
     FM040900 27010KT P6SM OVC025
     FM041500 29010KT P6SM VCSH OVC035=



000
FTUS43 KGRR 040500
TAFAZO
TAF
KAZO 040540Z 0406/0506 29010KT P6SM OVC025
      TEMPO 0406/0409 BKN015
     FM041500 29012KT P6SM VCSH BKN035=



000
FTUS43 KGRR 040500
TAFBTL
TAF
KBTL 040540Z 0406/0506 29010KT P6SM OVC025
      TEMPO 0406/0409 BKN015
     FM041500 29012KT P6SM BKN035=



000
FTUS43 KGRR 040500
TAFJXN
TAF
KJXN 040540Z 0406/0506 28011G16KT P6SM OVC025
      TEMPO 0406/0409 BKN015
     FM040900 29010KT P6SM OVC025
     FM041500 30010KT P6SM VCSH OVC035=



000
FTUS43 KGRR 040500
TAFGRR
TAF
KGRR 040540Z 0406/0506 29010KT P6SM OVC025
     FM041500 29012KT P6SM VCSH BKN035=



000
FTUS43 KGRR 040500
TAFJXN
TAF
KJXN 040540Z 0406/0506 28011G16KT P6SM OVC025
      TEMPO 0406/0409 BKN015
     FM040900 29010KT P6SM OVC025
     FM041500 30010KT P6SM VCSH OVC035=



000
FTUS43 KGRR 040500
TAFBTL
TAF
KBTL 040540Z 0406/0506 29010KT P6SM OVC025
      TEMPO 0406/0409 BKN015
     FM041500 29012KT P6SM BKN035=



000
FTUS43 KGRR 040500
TAFAZO
TAF
KAZO 040540Z 0406/0506 29010KT P6SM OVC025
      TEMPO 0406/0409 BKN015
     FM041500 29012KT P6SM VCSH BKN035=



000
FTUS43 KGRR 040500
TAFMKG
TAF
KMKG 040540Z 0406/0506 29010KT P6SM OVC025
     FM041500 29012KT P6SM VCSH BKN035=



000
FTUS43 KGRR 040500
TAFLAN
TAF
KLAN 040540Z 0406/0506 28011G20KT P6SM OVC025
      TEMPO 0406/0409 BKN015
     FM040900 27010KT P6SM OVC025
     FM041500 29010KT P6SM VCSH OVC035=



000
FTUS43 KGRR 040300 AAA
TAFGRR
TAF AMD
KGRR 040300Z 0403/0424 29012KT P6SM OVC035
      TEMPO 0404/0406 BKN025=



000
FTUS43 KGRR 040300 AAA
TAFGRR
TAF AMD
KGRR 040300Z 0403/0424 29012KT P6SM OVC035
      TEMPO 0404/0406 BKN025=



000
FTUS43 KGRR 032300
TAFAZO
TAF
KAZO 032325Z 0400/0424 27015G25KT P6SM OVC015
     FM040400 28012KT P6SM OVC025
     FM041300 29012KT P6SM OVC035=



000
FTUS43 KGRR 032300
TAFJXN
TAF
KJXN 032325Z 0400/0424 27014G24KT P6SM OVC015
     FM040400 27012KT P6SM OVC025
     FM041300 29012KT P6SM OVC035=



000
FTUS43 KGRR 032300
TAFBTL
TAF
KBTL 032325Z 0400/0424 27015G25KT P6SM OVC015
     FM040400 28012KT P6SM OVC025
     FM041300 29012KT P6SM OVC035=



000
FTUS43 KGRR 032300
TAFMKG
TAF
KMKG 032325Z 0400/0424 26012G19KT P6SM -DZ OVC015
     FM040300 30012KT P6SM OVC025
     FM041300 29012KT P6SM OVC035=



000
FTUS43 KGRR 032300
TAFLAN
TAF
KLAN 032325Z 0400/0424 26017G26KT P6SM OVC015
     FM040400 27012KT P6SM OVC025
     FM041300 29012KT P6SM OVC035=



000
FTUS43 KGRR 032300
TAFGRR
TAF
KGRR 032325Z 0400/0424 26016G23KT P6SM OVC015
     FM040400 29012KT P6SM OVC025
     FM041300 29012KT P6SM OVC035=



000
FTUS43 KGRR 032300 AAB
TAFGRR
TAF AMD
KGRR 032312Z 0323/0418 26016G23KT P6SM OVC015
     FM040400 29012KT P6SM OVC025
     FM041300 29012KT P6SM OVC035=



000
FTUS43 KGRR 032200 AAA
TAFGRR
TAF AMD
KGRR 032252Z 0323/0418 26016G23KT P6SM FZDZ OVC015
     FM040400 29012KT P6SM OVC025
     FM041300 29012KT P6SM OVC035=



000
FTUS43 KGRR 032200 AAD
TAFGRR
TAF AMD
KGRR 032242Z 0323/0418 26019G23KT P6SM -FZDZ OVC015
     FM040400 29012KT P6SM OVC025
     FM041300 29012KT P6SM OVC035=



000
FTUS43 KGRR 032200 AAC
TAFMKG
TAF AMD
KMKG 032233Z 0323/0418 26012G19KT P6SM -DZ OVC025
     FM040300 30012KT P6SM OVC025
     FM041300 29012KT P6SM OVC035=



000
FTUS43 KGRR 032200 AAB
TAFJXN
TAF AMD
KJXN 032203Z 0322/0418 25018G28KT 4SM -DZ BR OVC007
     FM040000 27014G24KT 6SM -DZ BR OVC009
     FM040400 27012KT P6SM OVC025
     FM041300 29012KT P6SM OVC035=



000
FTUS43 KGRR 032200 AAB
TAFLAN
TAF AMD
KLAN 032202Z 0322/0418 25017G26KT 6SM -DZ BR OVC009
     FM040400 27012KT P6SM OVC025
     FM041300 29012KT P6SM OVC035=



000
FTUS43 KGRR 032200 AAD
TAFAZO
TAF AMD
KAZO 032201Z 0322/0418 27015G25KT 6SM -DZ BR OVC010
     FM040400 27012KT P6SM OVC025
     FM041300 29012KT P6SM OVC035=



000
FTUS43 KGRR 032200 AAD
TAFAZO
TAF AMD
KAZO 032201Z 0322/0418 27015G25KT 6SM -DZ BR OVC010
     FM040400 27012KT P6SM OVC025
     FM041300 29012KT P6SM OVC035=



000
FTUS43 KGRR 032200 AAB
TAFBTL
TAF AMD
KBTL 032201Z 0322/0418 27015G24KT 6SM -DZ BR OVC009
     FM040400 27012KT P6SM OVC025
     FM041300 29012KT P6SM OVC035=



000
FTUS43 KGRR 032200 AAC
TAFGRR
TAF AMD
KGRR 032200Z 0322/0418 26019G27KT 6SM -FZDZ BR OVC009
     FM040400 29012KT P6SM OVC025
     FM041300 29012KT P6SM OVC035=



000
FTUS43 KGRR 032200 AAC
TAFGRR
TAF AMD
KGRR 032200Z 0322/0418 26019G27KT 6SM -FZDZ BR OVC009
     FM040400 29012KT P6SM OVC025
     FM041300 29012KT P6SM OVC035=



000
FTUS43 KGRR 032100 AAC
TAFAZO
TAF AMD
KAZO 032129Z 0321/0418 21014G22KT 2SM -FZDZ BR OVC006
     FM040000 25014G24KT 6SM -FZDZ BR OVC009
     FM040400 27012KT P6SM OVC025
     FM041300 29012KT P6SM OVC035=



000
FTUS43 KGRR 032100 AAB
TAFMKG
TAF AMD
KMKG 032128Z 0321/0418 25016G24KT P6SM -FZDZ OVC006
     FM040000 25014G24KT 6SM -FZDZ BR OVC009
     FM040300 30012KT P6SM OVC025
     FM041300 29012KT P6SM OVC035=



000
FTUS43 KGRR 032100 AAB
TAFGRR
TAF AMD
KGRR 032127Z 0321/0418 23016G26KT 5SM -FZDZ BR OVC009
     FM040000 25014G24KT 6SM -FZDZ BR OVC009
     FM040400 29012KT P6SM OVC025
     FM041300 29012KT P6SM OVC035=



000
FTUS43 KGRR 032000 AAA
TAFJXN
TAF AMD
KJXN 032009Z 0320/0418 21012G21KT 2SM -FZDZ BR OVC007
     FM040000 25014G24KT 6SM -FZDZ BR OVC009
     FM040400 27012KT P6SM OVC025
     FM041300 29012KT P6SM OVC035=



000
FTUS43 KGRR 032000 AAA
TAFLAN
TAF AMD
KLAN 032008Z 0320/0418 21014G20KT 1SM -FZRASN BR OVC006
     FM040000 24014G24KT 6SM -FZDZ BR OVC009
     FM040400 27012KT P6SM OVC025
     FM041300 29012KT P6SM OVC035=



000
FTUS43 KGRR 032000 AAA
TAFLAN
TAF AMD
KLAN 032008Z 0320/0418 21014G20KT 1SM -FZRASN BR OVC006
     FM040000 24014G24KT 6SM -FZDZ BR OVC009
     FM040400 27012KT P6SM OVC025
     FM041300 29012KT P6SM OVC035=



000
FTUS43 KGRR 032000 AAA
TAFBTL
TAF AMD
KBTL 032007Z 0320/0418 21014G22KT 1SM -FZDZ BR OVC005
     FM040000 25014G24KT 6SM -FZDZ BR OVC009
     FM040400 27012KT P6SM OVC025
     FM041300 29012KT P6SM OVC035=



000
FTUS43 KGRR 032000 AAB
TAFAZO
TAF AMD
KAZO 032007Z 0320/0418 21014G22KT 1SM -FZDZ BR OVC005
     FM040000 25014G24KT 6SM -FZDZ BR OVC009
     FM040400 27012KT P6SM OVC025
     FM041300 29012KT P6SM OVC035=



000
FTUS43 KGRR 032000 AAA
TAFBTL
TAF AMD
KBTL 032007Z 0320/0418 21014G22KT 1SM -FZDZ BR OVC005
     FM040000 25014G24KT 6SM -FZDZ BR OVC009
     FM040400 27012KT P6SM OVC025
     FM041300 29012KT P6SM OVC035=



000
FTUS43 KGRR 032000 AAA
TAFMKG
TAF AMD
KMKG 032006Z 0320/0418 21016G24KT 1SM -FZDZSN BR OVC004
     FM040000 25014G24KT 6SM -FZDZ BR OVC009
     FM040300 30012KT P6SM OVC025
     FM041300 29012KT P6SM OVC035=



000
FTUS43 KGRR 032000 AAA
TAFAZO
TAF AMD
KAZO 032005Z 0320/0418 22014G22KT 1SM -FZDZSN BR OVC005
     FM040000 25014G24KT 6SM -FZDZ BR OVC009
     FM040400 27012KT P6SM OVC025
     FM041300 29012KT P6SM OVC035=



000
FTUS43 KGRR 032000 AAA
TAFAZO
TAF AMD
KAZO 032005Z 0320/0418 22014G22KT 1SM -FZDZSN BR OVC005
     FM040000 25014G24KT 6SM -FZDZ BR OVC009
     FM040400 27012KT P6SM OVC025
     FM041300 29012KT P6SM OVC035=



000
FTUS43 KGRR 031800 AAA
TAFGRR
TAF AMD
KGRR 031858Z 0319/0418 18015KT 1SM -FZRA BR OVC006
     FM032100 21016G25KT 2SM -FZRAPL BR OVC008
     FM040000 25014G24KT 6SM -FZDZ BR OVC009
     FM040400 29012KT P6SM OVC025
     FM041300 29012KT P6SM OVC035=



000
FTUS43 KGRR 031700
TAFBTL
TAF
KBTL 031740Z 0318/0418 16014KT 3SM -FZRAPL BR OVC009
     FM032000 21015G25KT 3SM -RA BR OVC004
     FM040000 25014G24KT 6SM -FZDZ BR OVC009
     FM040400 27012KT P6SM OVC025
     FM041300 29012KT P6SM OVC035=



000
FTUS43 KGRR 031700
TAFLAN
TAF
KLAN 031740Z 0318/0418 15016KT 2SM -FZRAPL BR OVC012
     FM032200 21016G26KT 4SM -RA BR OVC004
     FM040000 24014G24KT 6SM -FZDZ BR OVC009
     FM040400 27012KT P6SM OVC025
     FM041300 29012KT P6SM OVC035=



000
FTUS43 KGRR 031700
TAFMKG
TAF
KMKG 031740Z 0318/0418 18016KT 1SM -SNPL OVC007
     FM032000 21016G25KT 2SM -SNPL BR OVC004
     FM040000 25014G24KT 6SM -FZDZ BR OVC012
     FM040300 30012KT P6SM OVC025
     FM041300 29012KT P6SM OVC035=



000
FTUS43 KGRR 031700
TAFJXN
TAF
KJXN 031740Z 0318/0418 16014KT 2SM -FZRAPL BR OVC011
     FM032000 21015G25KT 3SM -RA BR OVC004
     FM040000 25014G24KT 6SM -FZDZ BR OVC009
     FM040400 27012KT P6SM OVC025
     FM041300 29012KT P6SM OVC035=



000
FTUS43 KGRR 031700
TAFGRR
TAF
KGRR 031740Z 0318/0418 18015KT 2SM -FZRAPL BR OVC012
     FM032000 21016G25KT 2SM -FZRAPL BR OVC008
     FM040000 25014G24KT 6SM -FZDZ BR OVC009
     FM040400 29012KT P6SM OVC025
     FM041300 29012KT P6SM OVC035=



000
FTUS43 KGRR 031700
TAFAZO
TAF
KAZO 031740Z 0318/0418 16014KT 2SM -FZRAPL BR OVC008
     FM032000 21015G25KT 3SM -RA BR OVC004
     FM040000 25014G24KT 6SM -FZDZ BR OVC009
     FM040400 27012KT P6SM OVC025
     FM041300 29012KT P6SM OVC035=



000
FTUS43 KGRR 031700
TAFJXN
TAF
KJXN 031740Z 0318/0418 16014KT 2SM -FZRAPL BR OVC011
     FM032000 21015G25KT 3SM -RA BR OVC004
     FM040000 25014G24KT 6SM -FZDZ BR OVC009
     FM040400 27012KT P6SM OVC025
     FM041300 29012KT P6SM OVC035=



000
FTUS43 KGRR 031700
TAFLAN
TAF
KLAN 031740Z 0318/0418 15016KT 2SM -FZRAPL BR OVC012
     FM032200 21016G26KT 4SM -RA BR OVC004
     FM040000 24014G24KT 6SM -FZDZ BR OVC009
     FM040400 27012KT P6SM OVC025
     FM041300 29012KT P6SM OVC035=



000
FTUS43 KGRR 031700
TAFBTL
TAF
KBTL 031740Z 0318/0418 16014KT 3SM -FZRAPL BR OVC009
     FM032000 21015G25KT 3SM -RA BR OVC004
     FM040000 25014G24KT 6SM -FZDZ BR OVC009
     FM040400 27012KT P6SM OVC025
     FM041300 29012KT P6SM OVC035=



000
FTUS43 KGRR 031700
TAFGRR
TAF
KGRR 031740Z 0318/0418 18015KT 2SM -FZRAPL BR OVC012
     FM032000 21016G25KT 2SM -FZRAPL BR OVC008
     FM040000 25014G24KT 6SM -FZDZ BR OVC009
     FM040400 29012KT P6SM OVC025
     FM041300 29012KT P6SM OVC035=



000
FTUS43 KGRR 031700
TAFMKG
TAF
KMKG 031740Z 0318/0418 18016KT 1SM -SNPL OVC007
     FM032000 21016G25KT 2SM -SNPL BR OVC004
     FM040000 25014G24KT 6SM -FZDZ BR OVC012
     FM040300 30012KT P6SM OVC025
     FM041300 29012KT P6SM OVC035=



000
FTUS43 KGRR 031700
TAFAZO
TAF
KAZO 031740Z 0318/0418 16014KT 2SM -FZRAPL BR OVC008
     FM032000 21015G25KT 3SM -RA BR OVC004
     FM040000 25014G24KT 6SM -FZDZ BR OVC009
     FM040400 27012KT P6SM OVC025
     FM041300 29012KT P6SM OVC035=



000
FTUS43 KGRR 031500 AAD
TAFLAN
TAF AMD
KLAN 031559Z 0316/0412 14015KT 1SM -SNPL OVC015
     FM031700 15016G26KT 1SM -FZRAPL BR OVC012
     FM032200 21016G26KT 4SM -RA BR OVC004
     FM040400 27012G22KT P6SM OVC015=



000
FTUS43 KGRR 031500 AAD
TAFGRR
TAF AMD
KGRR 031557Z 0316/0412 14015KT 1SM -SNPL OVC015
     FM031700 18015G23KT 1SM -FZRAPL BR OVC012
     FM032000 21016G25KT 2SM -FZRAPL BR OVC008
     FM040000 25014G24KT 6SM -FZDZ BR OVC009
     FM040400 29012KT P6SM OVC025=



000
FTUS43 KGRR 031500 AAC
TAFLAN
TAF AMD
KLAN 031524Z 0315/0412 17015G23KT 1/4SM SN FZFG OVC008
     FM031700 15016G26KT 1SM -FZRAPL BR OVC008
     FM032200 21016G26KT 4SM -RA BR OVC004
     FM040400 27012G22KT P6SM OVC015=



000
FTUS43 KGRR 031500 AAC
TAFGRR
TAF AMD
KGRR 031523Z 0315/0412 14015G24KT 1/2SM SN FZFG OVC012
     FM031700 18015G24KT 1SM -FZRAPL BR OVC008
     FM032000 21016G25KT 2SM -FZRAPL BR OVC008
     FM040000 25014G24KT 6SM -FZDZ BR OVC009
     FM040400 29012KT P6SM OVC025=



000
FTUS43 KGRR 031400 AAB
TAFJXN
TAF AMD
KJXN 031451Z 0315/0412 16012G22KT 2SM -FZRAPL BR OVC011
     FM032100 21015G25KT 4SM -RA BR OVC004
     FM040300 27012G22KT P6SM OVC025=



000
FTUS43 KGRR 031400 AAB
TAFJXN
TAF AMD
KJXN 031451Z 0315/0412 16012G22KT 2SM -FZRAPL BR OVC011
     FM032100 21015G25KT 4SM -RA BR OVC004
     FM040300 27012G22KT P6SM OVC025=



000
FTUS43 KGRR 031400 AAA
TAFAZO
TAF AMD
KAZO 031450Z 0315/0412 16012G22KT 1SM -FZRAPL BR OVC012
     FM032000 21015G25KT 3SM -RA BR OVC004
     FM040300 27012G22KT P6SM OVC025=



000
FTUS43 KGRR 031400 AAA
TAFAZO
TAF AMD
KAZO 031450Z 0315/0412 16012G22KT 1SM -FZRAPL BR OVC012
     FM032000 21015G25KT 3SM -RA BR OVC004
     FM040300 27012G22KT P6SM OVC025=



000
FTUS43 KGRR 031400 AAB
TAFBTL
TAF AMD
KBTL 031422Z 0314/0412 15010G18KT 2SM -FZRAPL BR OVC007
     FM032000 21015G25KT 4SM -RA BR OVC004
     FM040300 27012G22KT P6SM OVC025=



000
FTUS43 KGRR 031400 AAB
TAFBTL
TAF AMD
KBTL 031422Z 0314/0412 15010G18KT 2SM -FZRAPL BR OVC007
     FM032000 21015G25KT 4SM -RA BR OVC004
     FM040300 27012G22KT P6SM OVC025=



000
FTUS43 KGRR 031400 AAB
TAFMKG
TAF AMD
KMKG 031409Z 0314/0412 14012KT 1/4SM SN FZFG VV009
     FM031500 16016G25KT 1/4SM SN FZFG OVC007
     FM031700 18016G25KT 1SM -SNPL OVC007
     FM032000 21016G25KT 2SM -SNPL BR OVC004
     FM040000 25014G24KT 6SM -FZDZ BR OVC012
     FM040300 30012KT P6SM OVC025=



000
FTUS43 KGRR 031300 AAB
TAFLAN
TAF AMD
KLAN 031353Z 0314/0412 16012KT 1/4SM SN FZFG OVC010
     FM031500 17015G23KT 1/4SM SN FZFG OVC007
     FM031900 15016G26KT 2SM -FZRAPL BR OVC005
     FM032200 21016G26KT 4SM -RA BR OVC004
     FM040400 27012G22KT P6SM OVC015=



000
FTUS43 KGRR 031300 AAB
TAFLAN
TAF AMD
KLAN 031353Z 0314/0412 16012KT 1/4SM SN FZFG OVC010
     FM031500 17015G23KT 1/4SM SN FZFG OVC007
     FM031900 15016G26KT 2SM -FZRAPL BR OVC005
     FM032200 21016G26KT 4SM -RA BR OVC004
     FM040400 27012G22KT P6SM OVC015=



000
FTUS43 KGRR 031300 AAB
TAFGRR
TAF AMD
KGRR 031351Z 0314/0412 14010KT 1/4SM SN FZFG VV006
     FM031500 14015G24KT 1/2SM SN FZFG OVC005
     FM031800 18015G24KT 1SM -SN BR OVC004
     FM032000 21016G25KT 2SM -SNPL BR OVC003
     FM040000 25014G24KT 6SM -FZDZ BR OVC009
     FM040400 29012KT P6SM OVC025=



000
FTUS43 KGRR 031300 AAB
TAFGRR
TAF AMD
KGRR 031351Z 0314/0412 14010KT 1/4SM SN FZFG VV006
     FM031500 14015G24KT 1/2SM SN FZFG OVC005
     FM031800 18015G24KT 1SM -SN BR OVC004
     FM032000 21016G25KT 2SM -SNPL BR OVC003
     FM040000 25014G24KT 6SM -FZDZ BR OVC009
     FM040400 29012KT P6SM OVC025=



000
FTUS43 KGRR 031300 AAA
TAFBTL
TAF AMD
KBTL 031301Z 0313/0412 16010KT 1/2SM SN FZFG VV011
     FM031400 16012KT 1SM -SN BR OVC007
     FM031500 17012G22KT 2SM -FZRAPL BR OVC007
     FM032000 21015G25KT 4SM -RA BR OVC004
     FM040300 27012G22KT P6SM OVC025=



000
FTUS43 KGRR 031300 AAA
TAFBTL
TAF AMD
KBTL 031301Z 0313/0412 16010KT 1/2SM SN FZFG VV011
     FM031400 16012KT 1SM -SN BR OVC007
     FM031500 17012G22KT 2SM -FZRAPL BR OVC007
     FM032000 21015G25KT 4SM -RA BR OVC004
     FM040300 27012G22KT P6SM OVC025=



000
FTUS43 KGRR 031200 AAA
TAFJXN
TAF AMD
KJXN 031258Z 0313/0412 14010KT 1/2SM SN FZFG VV012
     FM031430 15012G21KT 1SM -SN BR OVC007
     FM031600 17012G22KT 2SM -FZRAPL BR OVC005
     FM032100 21015G25KT 4SM -RA BR OVC004
     FM040300 27012G22KT P6SM OVC025=



000
FTUS43 KGRR 031200 AAA
TAFGRR
TAF AMD
KGRR 031256Z 0313/0412 14010KT 1/2SM SN FZFG VV009
     FM031500 14015G24KT 1/2SM SN FZFG OVC005
     FM031800 18015G24KT 1SM -SN BR OVC004
     FM032000 21016G25KT 2SM -SNPL BR OVC003
     FM040000 25014G24KT 6SM -FZDZ BR OVC009
     FM040400 29012KT P6SM OVC025=



000
FTUS43 KGRR 031200 AAA
TAFMKG
TAF AMD
KMKG 031252Z 0313/0412 14012KT 1/2SM SN FZFG VV009
     FM031500 16016G25KT 3/4SM -SN BR OVC007
     FM032000 21016G25KT 2SM -SNPL BR OVC004
     FM040000 25014G24KT 6SM -FZDZ BR OVC012
     FM040300 30012KT P6SM OVC025=



000
FTUS43 KGRR 031200 AAA
TAFMKG
TAF AMD
KMKG 031252Z 0313/0412 14012KT 1/2SM SN FZFG VV009
     FM031500 16016G25KT 3/4SM -SN BR OVC007
     FM032000 21016G25KT 2SM -SNPL BR OVC004
     FM040000 25014G24KT 6SM -FZDZ BR OVC012
     FM040300 30012KT P6SM OVC025=



000
FTUS43 KGRR 031200 AAA
TAFLAN
TAF AMD
KLAN 031251Z 0313/0412 16012KT 1/2SM SN FZFG OVC011
     FM031500 17015G23KT 3/4SM -SN BR OVC007
     FM031900 15016G26KT 2SM -FZRAPL BR OVC005
     FM032200 21016G26KT 4SM -RA BR OVC004
     FM040400 27012G22KT P6SM OVC015=



000
FTUS43 KGRR 031200 AAA
TAFLAN
TAF AMD
KLAN 031251Z 0313/0412 16012KT 1/2SM SN FZFG OVC011
     FM031500 17015G23KT 3/4SM -SN BR OVC007
     FM031900 15016G26KT 2SM -FZRAPL BR OVC005
     FM032200 21016G26KT 4SM -RA BR OVC004
     FM040400 27012G22KT P6SM OVC015=



000
FTUS43 KGRR 031100 RRA
TAFMKG
TAF
KMKG 031148Z 0312/0412 14012KT 2SM -SN OVC025
     FM031500 16016G25KT 3/4SM -SN BR OVC007
     FM032000 21016G25KT 2SM -SNPL BR OVC004
     FM040000 25014G24KT 6SM -FZDZ BR OVC012
     FM040300 30012KT P6SM OVC025=



000
FTUS43 KGRR 031100 RRA
TAFJXN
TAF
KJXN 031148Z 0312/0412 14010KT 5SM -SN BR OVC035
     FM031300 15012G21KT 1SM -SN BR OVC007
     FM031600 17012G22KT 2SM -FZRAPL BR OVC005
     FM032100 21015G25KT 4SM -RA BR OVC004
     FM040300 27012G22KT P6SM OVC025=



000
FTUS43 KGRR 031100 RRA
TAFGRR
TAF
KGRR 031148Z 0312/0412 14010KT 2SM -SN OVC025
     FM031500 14015G24KT 1/2SM SN FG OVC005
     FM032000 21016G25KT 2SM -SNPL BR OVC003
     FM040000 25014G24KT 6SM -FZDZ BR OVC009
     FM040400 29012KT P6SM OVC025=



000
FTUS43 KGRR 031100 RRA
TAFLAN
TAF
KLAN 031148Z 0312/0412 14008KT P6SM OVC060
     FM031300 15013KT 2SM -SN BR OVC015
     FM031500 17015G23KT 3/4SM -SN BR OVC007
     FM031900 15016G26KT 2SM -FZRAPL BR OVC005
     FM032200 21016G26KT 4SM -RA BR OVC004
     FM040400 27012G22KT P6SM OVC015=



000
FTUS43 KGRR 031100 RRA
TAFBTL
TAF
KBTL 031148Z 0312/0412 14010KT 1SM -SN BR OVC015
     FM031500 15012G22KT 2SM -FZRAPL BR OVC007
     FM032000 21015G25KT 4SM -RA BR OVC004
     FM040300 27012G22KT P6SM OVC025=



000
FTUS43 KGRR 031100 RRA
TAFAZO
TAF
KAZO 031148Z 0312/0412 14010KT 1SM -SN BR OVC015
     FM031500 15012G22KT 1SM -FZRAPL BR OVC007
     FM032000 21015G25KT 3SM -RA BR OVC004
     FM040300 27012G22KT P6SM OVC025=



000
FTUS43 KGRR 030500
TAFLAN
TAF
KLAN 030540Z 0306/0406 18006KT P6SM OVC150
     FM031400 15012KT 2SM -SN BR OVC015
     FM031800 17015G23KT 1SM -SN BR OVC009
     FM032100 21017G25KT 3/4SM -SN BR OVC005=



000
FTUS43 KGRR 030500
TAFBTL
TAF
KBTL 030540Z 0306/0406 18006KT P6SM OVC120
     FM031400 15012KT 2SM -SN BR OVC015
     FM031800 17015G23KT 1SM -FZRASN BR OVC006=



000
FTUS43 KGRR 030500
TAFGRR
TAF
KGRR 030540Z 0306/0406 17005KT P6SM OVC100
     FM031400 14010KT 2SM -SN BR OVC018
     FM031600 17015G23KT 3/4SM -SN BR OVC008
     FM031900 20016G25KT 1SM -SN OVC005=



000
FTUS43 KGRR 030500
TAFMKG
TAF
KMKG 030540Z 0306/0406 16008KT P6SM BKN150
     FM031200 15012KT 2SM -SN OVC018
     FM031500 17015G23KT 1SM -SN BR OVC009
     FM031800 20014G24KT 3/4SM -SN OVC004=



000
FTUS43 KGRR 030500
TAFJXN
TAF
KJXN 030540Z 0306/0406 20007KT P6SM OVC150
     FM031500 15012KT 2SM -SN BR OVC018
     FM031700 16014G21KT 1SM -FZRASN BR OVC009=



000
FTUS43 KGRR 030500
TAFAZO
TAF
KAZO 030540Z 0306/0406 17005KT P6SM OVC100
     FM031400 15012G21KT 2SM -SN BR OVC015
     FM031800 18015G23KT 1SM -FZRASN BR OVC006
     FM032200 21014G23KT 3/4SM -FZRASN OVC004=



000
FTUS43 KGRR 030500
TAFAZO
TAF
KAZO 030540Z 0306/0406 17005KT P6SM OVC100
     FM031400 15012G21KT 2SM -SN BR OVC015
     FM031800 18015G23KT 1SM -FZRASN BR OVC006
     FM032200 21014G23KT 3/4SM -FZRASN OVC004=



000
FTUS43 KGRR 030500
TAFMKG
TAF
KMKG 030540Z 0306/0406 16008KT P6SM BKN150
     FM031200 15012KT 2SM -SN OVC018
     FM031500 17015G23KT 1SM -SN BR OVC009
     FM031800 20014G24KT 3/4SM -SN OVC004=



000
FTUS43 KGRR 030500
TAFLAN
TAF
KLAN 030540Z 0306/0406 18006KT P6SM OVC150
     FM031400 15012KT 2SM -SN BR OVC015
     FM031800 17015G23KT 1SM -SN BR OVC009
     FM032100 21017G25KT 3/4SM -SN BR OVC005=



000
FTUS43 KGRR 030500
TAFJXN
TAF
KJXN 030540Z 0306/0406 20007KT P6SM OVC150
     FM031500 15012KT 2SM -SN BR OVC018
     FM031700 16014G21KT 1SM -FZRASN BR OVC009=



000
FTUS43 KGRR 030500
TAFBTL
TAF
KBTL 030540Z 0306/0406 18006KT P6SM OVC120
     FM031400 15012KT 2SM -SN BR OVC015
     FM031800 17015G23KT 1SM -FZRASN BR OVC006=



000
FTUS43 KGRR 030500
TAFGRR
TAF
KGRR 030540Z 0306/0406 17005KT P6SM OVC100
     FM031400 14010KT 2SM -SN BR OVC018
     FM031600 17015G23KT 3/4SM -SN BR OVC008
     FM031900 20016G25KT 1SM -SN OVC005=



    US Dept of Commerce
    National Oceanic and Atmospheric Administration
    National Weather Service
    1325 East West Highway
    Silver Spring, MD 20910
    Page Author: NWS Internet Services Team
Disclaimer
Information Quality
Credits
Glossary
Privacy Policy
Freedom of Information Act (FOIA)
About Us
Career Opportunities